Seagoville's Hourly Summary for Monday, July 9, 2018
Hour Temp
(f)
RH
(%)
Solar Rad.
(MJ/m2)
Rainfall
(in)
Wind
(mph)
7/9/2018 12:00 AM 75 81 0 0 0.86
7/9/2018 1:00 AM 74 88 0 0 0.07
7/9/2018 2:00 AM 74 89 0 0 0.58
7/9/2018 3:00 AM 73 92 0 0 0.7
7/9/2018 4:00 AM 74 92 0 0 1.13
7/9/2018 5:00 AM 73 93 0 0 0.05
7/9/2018 6:00 AM 72 94 0.02 0 0.84
7/9/2018 7:00 AM 73 94 0.16 0 1.27
7/9/2018 8:00 AM 76 82 0.79 0 1.52
7/9/2018 9:00 AM 80 74 1.58 0 2.52
7/9/2018 10:00 AM 82 67 2.2 0 4.66
7/9/2018 11:00 AM 85 54 2.94 0 3.9
7/9/2018 12:00 PM 86 54 1.89 0 3.75
7/9/2018 1:00 PM 85 55 1.78 0 6.39
7/9/2018 2:00 PM 85 55 1.04 0 4.89
7/9/2018 3:00 PM 87 50 2.42 0 5.07
7/9/2018 4:00 PM 87 48 0.72 0 3.86
7/9/2018 5:00 PM 82 60 0.84 0 7.46
7/9/2018 6:00 PM 81 69 0.45 0 6.52
7/9/2018 7:00 PM 80 74 0.25 0 4.63
7/9/2018 8:00 PM 79 76 0.02 0 3.88
7/9/2018 9:00 PM 77 83 0 0 2.82
7/9/2018 10:00 PM 75 87 0 0 1.07
7/9/2018 11:00 PM 74 90 0 0 0.76
Data Summary 78 75 17.10 0.00 2.88